createdAt,value
2022-08-01T00:04:14.579Z,5.18
2022-08-01T00:09:24.292Z,4.88
2022-08-01T00:14:32.087Z,5.13
2022-08-01T00:19:36.707Z,5.30
2022-08-01T00:24:40.480Z,6.03
2022-08-01T00:30:12.532Z,6.55
2022-08-01T00:35:10.022Z,5.80
2022-08-01T00:40:13.676Z,5.53
2022-08-01T00:45:18.754Z,5.70
2022-08-01T00:50:22.490Z,6.07
2022-08-01T00:55:29.351Z,6.05
2022-08-01T01:00:52.065Z,5.40
2022-08-01T01:06:07.429Z,5.18
2022-08-01T01:11:17.476Z,6.13
2022-08-01T01:16:24.124Z,4.75
2022-08-01T01:21:49.862Z,5.30
2022-08-01T01:27:00.334Z,5.07
2022-08-01T01:32:09.267Z,5.20
2022-08-01T01:37:17.309Z,4.88
2022-08-01T01:42:22.821Z,4.47
2022-08-01T01:47:29.707Z,4.88
2022-08-01T01:52:34.762Z,5.10
2022-08-01T01:57:41.510Z,4.63
2022-08-01T02:07:53.527Z,5.10
2022-08-01T02:13:07.532Z,5.57
2022-08-01T02:23:18.272Z,5.07
2022-08-01T02:28:29.227Z,4.63
2022-08-01T02:33:39.829Z,4.45
2022-08-01T02:38:46.595Z,3.97
2022-08-01T02:49:02.996Z,4.38
2022-08-01T02:54:09.638Z,4.93
2022-08-01T02:59:21.417Z,5.53
2022-08-01T03:04:28.743Z,5.28
2022-08-01T03:09:36.388Z,5.40
2022-08-01T03:14:41.943Z,5.45
2022-08-01T03:19:48.465Z,5.40
2022-08-01T03:24:55.026Z,6.45
2022-08-01T03:30:00.525Z,5.60
2022-08-01T03:35:06.566Z,5.75
2022-08-01T03:40:15.788Z,5.73
2022-08-01T03:45:25.515Z,5.53
2022-08-01T03:50:34.865Z,5.97
2022-08-01T03:55:40.385Z,6.15
2022-08-01T04:00:44.875Z,6.30
2022-08-01T04:05:49.926Z,6.93
2022-08-01T04:10:53.717Z,6.60
2022-08-01T04:15:57.543Z,6.70
2022-08-01T04:21:02.768Z,6.30
2022-08-01T04:26:07.856Z,5.72
2022-08-01T04:31:15.186Z,6.70
2022-08-01T04:36:23.827Z,5.53
2022-08-01T04:41:28.235Z,6.30
2022-08-01T04:46:33.599Z,5.57
2022-08-01T04:51:38.634Z,5.53
2022-08-01T04:56:42.627Z,4.53
2022-08-01T05:01:51.001Z,3.95
2022-08-01T05:06:56.322Z,4.85
2022-08-01T05:12:00.490Z,4.28
2022-08-01T05:17:05.817Z,3.80
2022-08-01T05:22:12.280Z,3.60
2022-08-01T05:27:16.437Z,4.53
2022-08-01T05:32:20.458Z,5.63
2022-08-01T05:37:25.514Z,5.32
2022-08-01T05:42:29.310Z,4.78
2022-08-01T05:47:32.892Z,5.28
2022-08-01T05:52:37.986Z,5.00
2022-08-01T05:57:41.789Z,4.95
2022-08-01T06:02:45.705Z,4.45
2022-08-01T06:07:50.802Z,5.07
2022-08-01T06:12:54.445Z,4.18
2022-08-01T06:17:58.195Z,3.72
2022-08-01T06:23:22.531Z,3.45
2022-08-01T06:28:27.010Z,3.15
2022-08-01T06:33:30.886Z,2.80
2022-08-01T06:38:35.946Z,3.00
2022-08-01T06:43:39.630Z,3.00
2022-08-01T06:48:43.684Z,3.08
2022-08-01T06:53:48.812Z,2.00
2022-08-01T06:58:52.794Z,1.48
2022-08-01T07:03:56.557Z,1.25
2022-08-01T07:09:07.423Z,1.10
2022-08-01T07:14:14.587Z,1.75
2022-08-01T07:19:18.906Z,1.25
2022-08-01T07:24:24.086Z,1.00
2022-08-01T07:29:30.654Z,0.80
2022-08-01T07:34:34.440Z,0.77
2022-08-01T07:39:39.606Z,0.70
2022-08-01T07:44:43.502Z,0.73
2022-08-01T07:49:47.305Z,0.70
2022-08-01T07:54:52.474Z,0.80
2022-08-01T07:59:56.333Z,1.15
2022-08-01T08:05:00.140Z,1.10
2022-08-01T08:10:06.329Z,1.27
2022-08-01T08:15:11.159Z,0.93
2022-08-01T08:20:14.973Z,1.23
2022-08-01T08:25:22.925Z,0.70
2022-08-01T08:30:30.541Z,0.98
2022-08-01T08:35:40.426Z,0.82
2022-08-01T08:40:58.974Z,0.77
2022-08-01T08:46:03.445Z,0.85
2022-08-01T08:51:09.644Z,0.60
2022-08-01T08:56:16.722Z,0.68
2022-08-01T09:01:22.801Z,1.00
2022-08-01T09:06:27.663Z,0.60
2022-08-01T09:11:33.045Z,0.65
2022-08-01T09:16:39.011Z,0.40
2022-08-01T09:21:56.837Z,0.50
2022-08-01T09:27:16.853Z,0.52
2022-08-01T09:32:21.057Z,0.50
2022-08-01T09:37:37.247Z,0.52
2022-08-01T09:42:42.826Z,0.90
2022-08-01T09:47:46.844Z,0.57
2022-08-01T09:52:57.131Z,1.00
2022-08-01T09:58:02.577Z,0.80
2022-08-01T10:03:22.606Z,0.82
2022-08-01T10:08:28.392Z,0.52
2022-08-01T10:13:36.387Z,0.50
2022-08-01T10:18:44.099Z,0.57
2022-08-01T10:23:48.420Z,0.70
2022-08-01T10:28:56.759Z,0.60
2022-08-01T10:34:05.051Z,0.50
2022-08-01T10:39:09.124Z,0.52
2022-08-01T10:44:14.290Z,0.73
2022-08-01T10:49:21.913Z,0.60
2022-08-01T10:54:28.007Z,0.88
2022-08-01T10:59:49.700Z,0.93
2022-08-01T11:04:59.822Z,0.73
2022-08-01T11:10:14.600Z,0.70
2022-08-01T11:15:30.023Z,0.50
2022-08-01T11:20:42.316Z,0.63
2022-08-01T11:26:17.647Z,0.70
2022-08-01T11:31:30.882Z,0.60
2022-08-01T11:37:09.781Z,0.60
2022-08-01T11:42:21.630Z,0.55
2022-08-01T11:47:48.162Z,0.80
2022-08-01T11:53:00.459Z,0.70
2022-08-01T11:58:06.866Z,0.68
2022-08-01T12:03:19.156Z,0.80
2022-08-01T12:08:37.674Z,0.90
2022-08-01T12:13:45.834Z,0.68
2022-08-01T12:18:51.305Z,0.93
2022-08-01T12:24:03.236Z,0.80
2022-08-01T12:29:07.100Z,0.82
2022-08-01T12:34:29.977Z,0.60
2022-08-01T12:39:38.401Z,0.80
2022-08-01T12:44:47.552Z,1.00
2022-08-01T12:49:52.956Z,1.00
2022-08-01T12:55:12.271Z,1.20
2022-08-01T13:00:22.039Z,1.25
2022-08-01T13:05:27.880Z,0.90
2022-08-01T13:10:32.616Z,1.00
2022-08-01T13:15:41.879Z,0.70
2022-08-01T13:20:52.299Z,0.60
2022-08-01T13:25:58.117Z,1.05
2022-08-01T13:31:03.361Z,0.88
2022-08-01T13:36:08.819Z,0.75
2022-08-01T13:41:13.006Z,0.83
2022-08-01T13:46:18.732Z,0.90
2022-08-01T13:51:23.897Z,1.00
2022-08-01T13:56:28.654Z,0.77
2022-08-01T14:01:34.510Z,0.70
2022-08-01T14:06:39.864Z,0.60
2022-08-01T14:11:46.230Z,1.50
2022-08-01T14:16:50.099Z,0.63
2022-08-01T14:21:57.852Z,0.52
2022-08-01T14:27:01.696Z,1.15
2022-08-01T14:32:06.581Z,0.70
2022-08-01T14:37:11.878Z,0.68
2022-08-01T14:42:16.006Z,0.60
2022-08-01T14:47:22.036Z,0.52
2022-08-01T14:57:32.542Z,0.47
2022-08-01T15:02:36.333Z,0.70
2022-08-01T15:07:51.607Z,0.80
2022-08-01T15:12:58.492Z,0.63
2022-08-01T15:18:02.228Z,0.80
2022-08-01T15:23:07.315Z,0.60
2022-08-01T15:28:11.783Z,0.63
2022-08-01T15:33:15.476Z,1.40
2022-08-01T15:38:20.737Z,0.70
2022-08-01T15:43:24.638Z,1.05
2022-08-01T15:48:31.639Z,0.60
2022-08-01T15:53:36.799Z,0.60
2022-08-01T15:58:40.963Z,0.60
2022-08-01T16:03:44.775Z,0.60
2022-08-01T16:08:50.128Z,0.50
2022-08-01T16:13:54.504Z,0.77
2022-08-01T16:18:58.293Z,0.50
2022-08-01T16:24:03.480Z,0.52
2022-08-01T16:29:07.210Z,0.47
2022-08-01T16:34:13.746Z,0.55
2022-08-01T16:39:23.214Z,0.70
2022-08-01T16:44:33.160Z,0.50
2022-08-01T16:49:38.289Z,0.68
2022-08-01T16:54:43.779Z,0.68
2022-08-01T16:59:47.557Z,0.65
2022-08-01T17:04:52.083Z,0.73
2022-08-01T17:09:57.307Z,0.60
2022-08-01T17:15:01.395Z,0.85
2022-08-01T17:20:05.975Z,0.60
2022-08-01T17:25:15.869Z,0.50
2022-08-01T17:30:20.104Z,0.70
2022-08-01T17:35:24.120Z,0.95
2022-08-01T17:40:40.190Z,0.50
2022-08-01T17:45:50.561Z,0.55
2022-08-01T17:50:55.159Z,0.60
2022-08-01T17:56:02.368Z,0.50
2022-08-01T18:01:06.257Z,0.60
2022-08-01T18:06:10.107Z,0.68
2022-08-01T18:11:15.490Z,0.52
2022-08-01T18:16:19.232Z,0.40
2022-08-01T18:21:23.196Z,0.40
2022-08-01T18:26:28.636Z,0.63
2022-08-01T18:31:32.348Z,0.50
2022-08-01T18:36:36.108Z,0.50
2022-08-01T18:41:45.659Z,0.73
2022-08-01T18:46:49.508Z,0.60
2022-08-01T18:51:54.320Z,0.52
2022-08-01T18:56:59.411Z,0.80
2022-08-01T19:02:03.142Z,0.60
2022-08-01T19:07:07.014Z,0.50
2022-08-01T19:12:12.981Z,0.60
2022-08-01T19:17:19.242Z,0.90
2022-08-01T19:22:26.641Z,0.75
2022-08-01T19:27:35.943Z,0.65
2022-08-01T19:32:40.699Z,0.50
2022-08-01T19:37:47.420Z,0.77
2022-08-01T19:42:59.372Z,0.43
2022-08-01T19:48:04.401Z,0.43
2022-08-01T19:53:16.705Z,0.68
2022-08-01T19:58:28.216Z,0.63
2022-08-01T20:03:34.902Z,0.65
2022-08-01T20:08:39.370Z,0.65
2022-08-01T20:13:44.950Z,0.90
2022-08-01T20:18:49.073Z,0.82
2022-08-01T20:24:02.722Z,1.00
2022-08-01T20:29:09.152Z,0.77
2022-08-01T20:34:15.958Z,0.60
2022-08-01T20:39:21.370Z,0.60
2022-08-01T20:49:38.493Z,0.70
2022-08-01T20:54:43.047Z,0.70
2022-08-01T20:59:56.925Z,0.70
2022-08-01T21:05:05.827Z,0.60
2022-08-01T21:10:11.870Z,0.70
2022-08-01T21:15:25.733Z,0.60
2022-08-01T21:20:32.141Z,0.45
2022-08-01T21:25:36.837Z,0.52
2022-08-01T21:30:42.558Z,0.55
2022-08-01T21:36:05.836Z,0.63
2022-08-01T21:41:10.295Z,0.73
2022-08-01T21:46:18.524Z,0.95
2022-08-01T21:51:33.588Z,0.70
2022-08-01T21:56:45.865Z,0.65
2022-08-01T22:01:57.444Z,0.60
2022-08-01T22:07:02.385Z,0.70
2022-08-01T22:12:08.205Z,0.85
2022-08-01T22:17:18.374Z,0.50
2022-08-01T22:22:45.155Z,0.57
2022-08-01T22:28:09.626Z,0.93
2022-08-01T22:33:16.962Z,1.00
2022-08-01T22:38:23.645Z,0.80
2022-08-01T22:43:36.573Z,0.80
2022-08-01T22:48:47.502Z,0.70
2022-08-01T22:53:58.451Z,0.68
2022-08-01T22:59:09.792Z,0.50
2022-08-01T23:04:33.575Z,0.50
2022-08-01T23:09:52.989Z,0.68
2022-08-01T23:15:00.064Z,0.60
2022-08-01T23:20:07.380Z,0.40
2022-08-01T23:25:13.116Z,0.70
2022-08-01T23:30:17.425Z,0.40
2022-08-01T23:35:22.874Z,0.90
2022-08-01T23:40:27.131Z,0.60
2022-08-01T23:46:02.355Z,0.30
2022-08-01T23:50:56.351Z,0.38
2022-08-01T23:56:02.839Z,0.60
